»·PEaware :: N30691 KHND-KHII

N30691 :: KHND-KHII

FLIGHT INFORMATION

Flight Status: Arrived
Operator: Privately registered:
United States
More flights under this callsign
Pilot: John F. (12896)
Aircraft: CESSNA 177 CARDINAL
(C177)
More flights by this aircraft type
Origin: KHND Henderson
United States
Destination: KHII Lake Havasu City
United States
More flights between these airports :: More routes between these airports
Route: +
File this flight plan on PilotEdge
Remarks:
Altitude:
(Current/Filed)
0ft
Speed:
(Current/Filed)
0kts
Departed: 09-Feb-18 12:05 PM
Arrived: 09-Feb-18 01:00 PM
Distance/Time
Traveled:
93nm/0:55
Distance/Time
To Go:
Arrived

Flight Plot

Page will automatically refresh every two minutes.

Flight plan parsing failed; only flown route is shown


Map Options




Map Legend


Flown Route
Filed Route
Departure Airport
Arrival Airport
Navaid (VOR, NDB)
Fix

Horizontal Profiles

Position Reports

Time Latitude Longitude Heading Altitude Ground
Speed
09-Feb-18 12:02 35.973527 -115.139781 0 2495ft 0kts
09-Feb-18 12:03 35.973528 -115.139781 0 2495ft 0kts
09-Feb-18 12:04 35.972787 -115.139383 156 2495ft 8kts
09-Feb-18 12:05 35.971127 -115.137410 171 2495ft 10kts
09-Feb-18 12:06 35.968374 -115.136607 183 2495ft 16kts
09-Feb-18 12:07 35.964250 -115.136656 178 2495ft 12kts
09-Feb-18 12:08 35.963351 -115.136360 95 2495ft 0kts
09-Feb-18 12:09 35.963351 -115.136359 95 2495ft 0kts
09-Feb-18 12:10 35.963351 -115.136359 95 2495ft 0kts
09-Feb-18 12:11 35.963925 -115.135543 2 2495ft 17kts
09-Feb-18 12:12 35.982179 -115.135169 0 2822ft 78kts
09-Feb-18 12:13 35.998459 -115.123212 108 3412ft 86kts
09-Feb-18 12:14 35.974567 -115.118288 183 3952ft 99kts
09-Feb-18 12:15 35.945781 -115.118504 176 4414ft 110kts
09-Feb-18 12:16 35.915017 -115.106381 152 4671ft 119kts
09-Feb-18 12:17 35.885366 -115.086042 159 4723ft 126kts
09-Feb-18 12:18 35.853380 -115.068606 144 4738ft 126kts
09-Feb-18 12:19 35.822330 -115.053259 162 4944ft 119kts
09-Feb-18 12:20 35.792709 -115.037739 154 5230ft 116kts
09-Feb-18 12:21 35.763663 -115.021005 155 5536ft 112kts
09-Feb-18 12:22 35.736098 -115.005241 155 5963ft 108kts
09-Feb-18 12:23 35.708659 -114.989702 155 6308ft 109kts
09-Feb-18 12:24 35.681178 -114.974208 155 6650ft 106kts
09-Feb-18 12:25 35.654079 -114.958896 155 6925ft 109kts
09-Feb-18 12:26 35.626460 -114.943398 155 7200ft 109kts
09-Feb-18 12:27 35.598839 -114.927824 155 7570ft 109kts
09-Feb-18 12:28 35.570132 -114.911809 155 7630ft 115kts
09-Feb-18 12:29 35.540865 -114.895503 155 7547ft 116kts
09-Feb-18 12:30 35.511211 -114.878880 155 7586ft 117kts
09-Feb-18 12:31 35.481746 -114.862351 155 7647ft 117kts
09-Feb-18 12:32 35.451476 -114.845444 155 7596ft 121kts
09-Feb-18 12:33 35.420680 -114.828285 155 7512ft 120kts
09-Feb-18 12:34 35.390327 -114.811286 155 7492ft 120kts
09-Feb-18 12:35 35.359919 -114.794284 155 7473ft 119kts
09-Feb-18 12:36 35.329751 -114.777433 155 7485ft 118kts
09-Feb-18 12:37 35.299584 -114.760592 155 7498ft 118kts
09-Feb-18 12:38 35.269717 -114.743926 155 7530ft 118kts
09-Feb-18 12:39 35.239730 -114.727224 155 7558ft 118kts
09-Feb-18 12:40 35.209811 -114.710577 155 7583ft 118kts
09-Feb-18 12:41 35.179886 -114.693939 155 7605ft 118kts
09-Feb-18 12:42 35.149493 -114.677084 155 7564ft 120kts
09-Feb-18 12:43 35.119092 -114.660230 155 7536ft 120kts
09-Feb-18 12:44 35.088607 -114.643322 155 7509ft 120kts
09-Feb-18 12:45 35.058243 -114.626494 155 7486ft 120kts
09-Feb-18 12:46 35.027890 -114.609656 155 7466ft 119kts
09-Feb-18 12:47 34.997460 -114.592785 155 7449ft 119kts
09-Feb-18 12:48 34.967132 -114.576020 155 7434ft 119kts
09-Feb-18 12:49 34.936942 -114.559336 155 7444ft 119kts
09-Feb-18 12:50 34.906483 -114.542534 155 7416ft 120kts
09-Feb-18 12:51 34.876006 -114.525737 155 7384ft 120kts
09-Feb-18 12:52 34.845462 -114.508908 155 7348ft 117kts
09-Feb-18 12:53 34.814908 -114.492142 155 6650ft 121kts
09-Feb-18 12:54 34.784355 -114.478840 162 6254ft 108kts
09-Feb-18 12:55 34.752959 -114.469489 168 5637ft 111kts
09-Feb-18 12:56 34.722817 -114.465066 174 4877ft 109kts
09-Feb-18 12:57 34.693100 -114.459582 164 4081ft 98kts
09-Feb-18 12:58 34.668791 -114.448261 157 3269ft 90kts
09-Feb-18 12:59 34.645910 -114.435331 152 2475ft 90kts
09-Feb-18 13:00 34.624377 -114.418975 146 1890ft 96kts
09-Feb-18 13:01 34.601328 -114.404580 154 1826ft 92kts
09-Feb-18 13:02 34.578031 -114.392007 156 1818ft 91kts
09-Feb-18 13:03 34.556452 -114.380651 155 1814ft 77kts
09-Feb-18 13:04 34.537063 -114.367179 121 1572ft 82kts
09-Feb-18 13:05 34.544339 -114.345113 28 1423ft 78kts
09-Feb-18 13:06 34.561683 -114.351598 329 806ft 61kts
09-Feb-18 13:07 34.566763 -114.355864 289 786ft 0kts
09-Feb-18 13:08 34.566773 -114.355896 291 786ft 3kts
09-Feb-18 13:09 34.567176 -114.358845 229 786ft 6kts

Navigation Log

Ident Type
Flight plan parsing failed, navigation log unavailable